Time;durP1;ratioP1;P1;durP2;ratioP2;P2;SDS_P1;SDS_P2;PMS_P1;PMS_P2;Temp;Humidity;BMP_temperature;BMP_pressure;BME280_temperature;BME280_humidity;BME280_pressure;Samples;Min_cycle;Max_cycle;Signal;HPM_P1;HPM_P2
2023/06/04 00:00:13;;;;;;;1.77;1.30;;;20.60;32.20;;;;;;4930640;28;20875;-85
2023/06/04 00:02:40;;;;;;;3.80;1.30;;;20.70;32.40;;;;;;4907531;29;20833;-85
2023/06/04 00:05:09;;;;;;;1.60;1.40;;;20.70;32.50;;;;;;4919521;29;20464;-84
2023/06/04 00:07:36;;;;;;;1.23;1.00;;;20.70;32.50;;;;;;4922664;29;20447;-85
2023/06/04 00:10:04;;;;;;;1.40;1.20;;;20.60;33.00;;;;;;4938423;29;20835;-83
2023/06/04 00:12:32;;;;;;;1.40;1.20;;;20.60;33.50;;;;;;4933113;29;20900;-84
2023/06/04 00:14:59;;;;;;;3.47;1.47;;;20.60;33.40;;;;;;4917550;29;20979;-84
2023/06/04 00:17:26;;;;;;;3.40;1.80;;;20.60;32.80;;;;;;4923038;29;20482;-85
2023/06/04 00:19:53;;;;;;;1.53;1.43;;;20.40;32.00;;;;;;4929997;29;20462;-83
2023/06/04 00:22:22;;;;;;;1.27;1.17;;;20.30;32.40;;;;;;4907292;29;20465;-84
2023/06/04 00:24:49;;;;;;;2.20;1.40;;;20.20;32.80;;;;;;4915915;29;20490;-84
2023/06/04 00:27:15;;;;;;;2.20;1.47;;;20.20;32.70;;;;;;4906839;29;20476;-85
2023/06/04 00:29:42;;;;;;;2.30;1.57;;;20.10;32.60;;;;;;4915339;29;20482;-83
2023/06/04 00:32:10;;;;;;;2.00;1.20;;;20.10;33.00;;;;;;4922949;29;20461;-83
2023/06/04 00:34:37;;;;;;;4.10;1.30;;;20.20;32.90;;;;;;4940910;29;20477;-83
2023/06/04 00:37:05;;;;;;;1.67;1.40;;;20.20;33.10;;;;;;4918057;29;20580;-85
2023/06/04 00:39:34;;;;;;;2.83;1.23;;;20.20;33.10;;;;;;4929139;29;20442;-85
2023/06/04 00:42:01;;;;;;;1.70;1.60;;;20.10;33.40;;;;;;4920774;29;20474;-84
2023/06/04 00:44:28;;;;;;;2.47;1.50;;;20.10;33.20;;;;;;4918826;29;20478;-84
2023/06/04 00:46:55;;;;;;;1.67;1.33;;;20.00;32.50;;;;;;4923150;29;20961;-84
2023/06/04 00:49:22;;;;;;;1.50;1.40;;;19.90;32.70;;;;;;4903712;29;20463;-84
2023/06/04 00:51:51;;;;;;;1.83;1.40;;;19.80;33.40;;;;;;4931697;29;20534;-84
2023/06/04 00:54:20;;;;;;;1.30;1.20;;;19.80;33.20;;;;;;4914053;29;21049;-85
2023/06/04 00:56:48;;;;;;;3.10;2.10;;;19.80;33.80;;;;;;4926051;29;20467;-84
2023/06/04 00:59:16;;;;;;;5.80;1.60;;;19.80;33.80;;;;;;4921954;29;20465;-84
2023/06/04 01:01:50;;;;;;;1.43;1.30;;;19.80;33.60;;;;;;4921556;29;20443;-84
2023/06/04 01:04:24;;;;;;;2.27;1.30;;;19.80;33.20;;;;;;4903613;29;21234;-84
2023/06/04 01:06:54;;;;;;;2.50;1.40;;;19.60;32.60;;;;;;4906864;29;20485;-85
2023/06/04 01:09:21;;;;;;;3.43;1.43;;;19.40;32.70;;;;;;4924377;29;21010;-84
2023/06/04 01:11:50;;;;;;;3.20;1.67;;;19.20;32.70;;;;;;4922230;29;20459;-85
2023/06/04 01:14:18;;;;;;;3.00;1.30;;;19.10;33.40;;;;;;4930181;29;20447;-85
2023/06/04 01:16:50;;;;;;;3.63;1.53;;;19.00;33.60;;;;;;4933459;28;20470;-85
2023/06/04 01:19:54;;;;;;;1.20;1.10;;;19.10;34.70;;;;;;4906838;29;20446;-84
2023/06/04 01:22:31;;;;;;;1.37;1.23;;;19.10;33.70;;;;;;4917547;28;20446;-83
2023/06/04 01:25:03;;;;;;;2.03;1.03;;;19.00;34.70;;;;;;4920101;29;20474;-84
2023/06/04 01:27:32;;;;;;;1.23;0.90;;;19.10;34.50;;;;;;4921717;29;20462;-84
2023/06/04 01:30:00;;;;;;;1.90;1.60;;;19.10;34.60;;;;;;4927916;29;20490;-84
2023/06/04 01:32:28;;;;;;;1.80;1.43;;;19.00;34.80;;;;;;4932248;28;20518;-85
2023/06/04 01:34:55;;;;;;;1.40;1.30;;;19.10;35.00;;;;;;4921027;29;20455;-84
2023/06/04 01:37:23;;;;;;;3.07;1.33;;;19.10;35.00;;;;;;4906061;29;20529;-85
2023/06/04 01:39:50;;;;;;;1.50;1.20;;;19.10;35.00;;;;;;4905303;29;20461;-84
2023/06/04 01:42:17;;;;;;;1.57;1.43;;;19.10;35.20;;;;;;4920346;29;20882;-84
2023/06/04 01:44:45;;;;;;;3.33;1.47;;;19.00;35.00;;;;;;4904784;29;20457;-84
2023/06/04 01:47:12;;;;;;;3.93;1.50;;;19.00;35.10;;;;;;4921383;29;20470;-85
2023/06/04 01:49:40;;;;;;;1.80;1.40;;;19.00;35.50;;;;;;4916043;29;21036;-84
2023/06/04 01:52:08;;;;;;;2.70;1.40;;;18.90;35.60;;;;;;4919788;29;20522;-84
2023/06/04 01:54:37;;;;;;;1.50;1.40;;;18.90;35.80;;;;;;4926255;29;20459;-85
2023/06/04 01:57:05;;;;;;;3.23;1.60;;;18.90;35.50;;;;;;4906321;29;20475;-83
2023/06/04 01:59:33;;;;;;;1.60;1.30;;;18.90;35.80;;;;;;4914802;29;20541;-84
2023/06/04 02:02:02;;;;;;;1.67;1.23;;;18.80;35.40;;;;;;4945348;28;20466;-85
2023/06/04 02:04:29;;;;;;;1.33;1.17;;;18.80;35.80;;;;;;4917944;29;20489;-84
2023/06/04 02:06:59;;;;;;;2.03;1.17;;;18.80;35.50;;;;;;4938294;28;20849;-84
2023/06/04 02:09:27;;;;;;;2.50;1.30;;;18.70;35.90;;;;;;4929913;29;20479;-85
2023/06/04 02:11:54;;;;;;;1.90;1.27;;;18.70;35.80;;;;;;4906911;29;21212;-85
2023/06/04 02:14:21;;;;;;;3.07;1.50;;;18.60;35.90;;;;;;4922175;29;21266;-83
2023/06/04 02:16:49;;;;;;;3.00;1.43;;;18.60;36.00;;;;;;4916475;29;20474;-85
2023/06/04 02:19:19;;;;;;;1.87;1.20;;;18.50;37.20;;;;;;4922856;29;20484;-85
2023/06/04 02:21:46;;;;;;;1.37;1.23;;;18.40;37.00;;;;;;4901121;29;20956;-84
2023/06/04 02:24:14;;;;;;;1.50;1.20;;;18.40;36.80;;;;;;4931224;29;20557;-86
2023/06/04 02:26:42;;;;;;;5.13;1.33;;;18.40;36.60;;;;;;4927011;28;20852;-83
2023/06/04 02:29:09;;;;;;;3.67;1.60;;;18.30;36.90;;;;;;4920825;29;20566;-84
2023/06/04 02:31:36;;;;;;;1.50;1.40;;;18.30;37.10;;;;;;4937111;29;20451;-85
2023/06/04 02:34:04;;;;;;;2.23;1.93;;;18.30;37.30;;;;;;4923382;29;20466;-84
2023/06/04 02:36:32;;;;;;;3.63;1.70;;;18.20;37.30;;;;;;4922396;29;20493;-83
2023/06/04 02:39:01;;;;;;;1.20;1.10;;;18.20;38.50;;;;;;4930602;29;20450;-84
2023/06/04 02:41:27;;;;;;;2.73;1.73;;;18.10;39.20;;;;;;4921631;29;20513;-84
2023/06/04 02:43:54;;;;;;;2.00;1.50;;;18.10;39.70;;;;;;4918246;29;20454;-84
2023/06/04 02:46:21;;;;;;;2.13;1.47;;;18.10;40.20;;;;;;4931341;28;20502;-84
2023/06/04 02:48:48;;;;;;;3.87;1.47;;;18.00;39.90;;;;;;4929422;29;20673;-84
2023/06/04 02:51:15;;;;;;;2.43;1.43;;;18.00;39.40;;;;;;4930054;29;20461;-84
2023/06/04 02:53:45;;;;;;;1.40;1.23;;;18.00;38.50;;;;;;4906451;29;20554;-85
2023/06/04 02:56:12;;;;;;;1.97;1.50;;;18.00;38.10;;;;;;4914689;29;20489;-84
2023/06/04 02:58:49;;;;;;;1.87;1.40;;;17.90;38.30;;;;;;4922591;29;20455;-83
2023/06/04 03:01:19;;;;;;;1.77;1.30;;;17.80;38.40;;;;;;4917126;29;20465;-84
2023/06/04 03:03:46;;;;;;;3.60;1.87;;;17.80;38.30;;;;;;4912957;29;20467;-83
2023/06/04 03:06:15;;;;;;;2.33;1.40;;;17.70;38.40;;;;;;4929123;28;20505;-84
2023/06/04 03:08:43;;;;;;;1.60;1.47;;;17.70;38.30;;;;;;4922135;29;20447;-84
2023/06/04 03:11:10;;;;;;;2.00;1.60;;;17.70;38.50;;;;;;4932776;29;20462;-83
2023/06/04 03:13:37;;;;;;;1.50;1.40;;;17.70;38.30;;;;;;4931273;28;20987;-85
2023/06/04 03:16:09;;;;;;;2.00;1.50;;;17.60;38.70;;;;;;4920421;29;20569;-84
2023/06/04 03:18:37;;;;;;;2.80;1.57;;;17.50;39.30;;;;;;4924311;29;20455;-85
2023/06/04 03:21:04;;;;;;;4.40;1.60;;;17.50;39.50;;;;;;4914162;29;20532;-85
2023/06/04 03:23:32;;;;;;;1.93;1.77;;;17.50;39.40;;;;;;4913564;29;20465;-85
2023/06/04 03:26:01;;;;;;;2.10;1.30;;;17.50;39.80;;;;;;4920920;28;20937;-84
2023/06/04 03:28:28;;;;;;;2.60;1.30;;;17.40;39.40;;;;;;4942785;29;21169;-84
2023/06/04 03:30:55;;;;;;;2.67;1.70;;;17.30;39.70;;;;;;4904601;29;20477;-84
2023/06/04 03:33:24;;;;;;;3.60;1.53;;;17.30;40.40;;;;;;4927633;29;20458;-85
2023/06/04 03:35:52;;;;;;;1.77;1.63;;;17.20;41.00;;;;;;4933380;29;20503;-85
2023/06/04 03:38:19;;;;;;;4.00;2.37;;;17.20;41.10;;;;;;4927131;29;20534;-84
2023/06/04 03:40:47;;;;;;;1.93;1.20;;;17.20;41.20;;;;;;4918574;29;21171;-84
2023/06/04 03:43:16;;;;;;;3.17;1.93;;;17.20;41.20;;;;;;4928721;28;20465;-84
2023/06/04 03:45:44;;;;;;;3.87;1.80;;;17.20;42.00;;;;;;4922700;29;20514;-85
2023/06/04 03:48:12;;;;;;;3.47;1.50;;;17.20;41.50;;;;;;4909798;29;20461;-84
2023/06/04 03:50:39;;;;;;;5.20;1.60;;;17.20;40.60;;;;;;4909487;29;20474;-84
2023/06/04 03:53:07;;;;;;;2.27;1.40;;;17.20;39.90;;;;;;4903548;28;20549;-85
2023/06/04 03:55:34;;;;;;;5.20;1.50;;;17.10;40.40;;;;;;4934837;29;20528;-83
2023/06/04 03:58:03;;;;;;;1.87;1.23;;;17.00;41.70;;;;;;4926004;29;20587;-85
2023/06/04 04:00:31;;;;;;;1.80;1.50;;;17.00;41.50;;;;;;4925659;29;20465;-83
2023/06/04 04:03:01;;;;;;;3.43;1.60;;;17.00;42.30;;;;;;4905515;29;21050;-84
2023/06/04 04:05:31;;;;;;;1.70;1.60;;;17.00;42.60;;;;;;4927205;28;20589;-84
2023/06/04 04:07:58;;;;;;;4.93;2.00;;;17.00;43.70;;;;;;4923212;29;20490;-85
2023/06/04 04:10:30;;;;;;;1.40;1.20;;;17.00;44.00;;;;;;4910626;29;20482;-84
2023/06/04 04:12:58;;;;;;;2.30;1.90;;;17.10;44.10;;;;;;4931676;29;20458;-84
2023/06/04 04:15:25;;;;;;;3.60;1.77;;;17.10;44.40;;;;;;4921452;28;20573;-84
2023/06/04 04:17:56;;;;;;;1.73;1.60;;;17.10;44.30;;;;;;4924123;29;20461;-85
2023/06/04 04:20:23;;;;;;;2.73;1.53;;;17.10;43.90;;;;;;4933390;29;20450;-85
2023/06/04 04:22:55;;;;;;;2.40;1.70;;;17.10;43.40;;;;;;4941354;29;20526;-85
2023/06/04 04:25:24;;;;;;;3.60;1.60;;;17.10;42.30;;;;;;4925553;28;20960;-85
2023/06/04 04:27:51;;;;;;;1.83;1.40;;;17.00;41.80;;;;;;4916569;29;20462;-84
2023/06/04 04:30:19;;;;;;;2.07;1.70;;;17.00;41.70;;;;;;4907759;29;20470;-84
2023/06/04 04:32:50;;;;;;;3.23;1.50;;;17.00;42.60;;;;;;4922539;29;20453;-83
2023/06/04 04:35:24;;;;;;;2.80;1.40;;;17.00;43.10;;;;;;4938014;29;20485;-85
2023/06/04 04:37:54;;;;;;;2.47;1.50;;;17.00;43.00;;;;;;4914916;29;20459;-85
2023/06/04 04:40:21;;;;;;;2.40;1.77;;;17.10;43.20;;;;;;4904576;29;20481;-84
2023/06/04 04:42:50;;;;;;;2.70;1.47;;;17.10;43.70;;;;;;4909228;29;20501;-82
2023/06/04 04:45:18;;;;;;;1.93;1.73;;;17.10;44.00;;;;;;4915939;29;20473;-83
2023/06/04 04:47:46;;;;;;;2.27;1.90;;;17.10;44.80;;;;;;4907878;29;20466;-84
2023/06/04 04:50:13;;;;;;;1.87;1.50;;;17.10;44.90;;;;;;4933107;29;20542;-85
2023/06/04 04:52:42;;;;;;;2.13;1.87;;;17.20;45.20;;;;;;4933219;29;20467;-84
2023/06/04 04:55:09;;;;;;;2.03;1.83;;;17.20;46.10;;;;;;4916128;29;20840;-84
2023/06/04 04:57:37;;;;;;;2.73;1.77;;;17.20;45.90;;;;;;4919986;29;20474;-84
2023/06/04 05:00:06;;;;;;;2.60;1.57;;;17.20;46.20;;;;;;4904514;29;20558;-84
2023/06/04 05:02:33;;;;;;;2.73;1.83;;;17.20;46.20;;;;;;4918988;29;20486;-84
2023/06/04 05:05:00;;;;;;;2.23;1.20;;;17.30;46.40;;;;;;4898638;29;20463;-85
2023/06/04 05:07:27;;;;;;;4.53;1.47;;;17.30;46.80;;;;;;4917104;29;20524;-85
2023/06/04 05:09:56;;;;;;;2.50;1.57;;;17.30;46.70;;;;;;4918898;29;20593;-84
2023/06/04 05:12:26;;;;;;;5.80;1.80;;;17.30;46.80;;;;;;4934707;29;21025;-84
2023/06/04 05:14:53;;;;;;;3.10;1.80;;;17.40;46.50;;;;;;4934464;29;20481;-84
2023/06/04 05:17:21;;;;;;;3.30;2.27;;;17.40;46.70;;;;;;4905132;29;20778;-84
2023/06/04 05:19:49;;;;;;;1.70;1.60;;;17.50;46.80;;;;;;4919582;29;20956;-84
2023/06/04 05:22:18;;;;;;;1.60;1.47;;;17.50;46.70;;;;;;4911945;29;21069;-83
2023/06/04 05:24:45;;;;;;;2.23;1.60;;;17.50;46.40;;;;;;4914686;29;20541;-83
2023/06/04 05:27:15;;;;;;;2.33;1.60;;;17.60;46.70;;;;;;4918550;29;20597;-85
2023/06/04 05:29:42;;;;;;;2.10;1.57;;;17.60;46.30;;;;;;4924953;29;20594;-85
2023/06/04 05:32:09;;;;;;;3.37;1.80;;;17.70;45.90;;;;;;4922559;29;20447;-84
2023/06/04 05:34:37;;;;;;;1.70;1.60;;;17.80;45.90;;;;;;4919444;29;20463;-84
2023/06/04 05:37:08;;;;;;;4.33;1.50;;;17.80;44.40;;;;;;4930235;29;20979;-85
2023/06/04 05:39:35;;;;;;;3.40;1.87;;;17.80;42.60;;;;;;4925605;29;20466;-83
2023/06/04 05:42:16;;;;;;;1.87;1.67;;;18.00;42.80;;;;;;4940265;29;21183;-83
2023/06/04 05:44:44;;;;;;;3.67;1.67;;;18.00;44.50;;;;;;4905748;29;20450;-84
2023/06/04 05:47:13;;;;;;;2.00;1.60;;;18.10;44.50;;;;;;4915346;29;20538;-84
2023/06/04 05:49:40;;;;;;;3.20;2.00;;;18.30;43.60;;;;;;4907991;29;22584;-85
2023/06/04 05:52:07;;;;;;;8.50;2.10;;;18.50;43.70;;;;;;4923316;29;20836;-85
2023/06/04 05:54:36;;;;;;;2.47;1.50;;;18.70;43.70;;;;;;4919758;29;20951;-84
2023/06/04 05:57:04;;;;;;;1.57;1.20;;;18.90;43.50;;;;;;4923144;29;20479;-85
2023/06/04 05:59:33;;;;;;;2.37;1.80;;;19.10;43.50;;;;;;4919531;29;20495;-84
2023/06/04 06:02:00;;;;;;;4.70;1.63;;;19.30;43.10;;;;;;4923474;29;20466;-85
2023/06/04 06:04:27;;;;;;;2.20;1.40;;;19.40;42.60;;;;;;4923655;29;21162;-85
2023/06/04 06:06:55;;;;;;;2.43;1.60;;;19.40;39.10;;;;;;4918729;29;20521;-85
2023/06/04 06:09:22;;;;;;;1.90;1.40;;;19.50;40.50;;;;;;4928207;29;20481;-85
2023/06/04 06:11:49;;;;;;;1.97;1.50;;;19.70;41.60;;;;;;4924821;29;20575;-85
2023/06/04 06:14:16;;;;;;;1.90;1.63;;;19.90;41.70;;;;;;4925358;29;20458;-85
2023/06/04 06:16:45;;;;;;;2.30;1.67;;;20.00;41.80;;;;;;4907905;29;20586;-83
2023/06/04 06:19:12;;;;;;;4.30;1.60;;;20.20;41.90;;;;;;4918103;29;20843;-83
2023/06/04 06:21:39;;;;;;;2.70;1.60;;;20.20;38.60;;;;;;4921487;29;21300;-84
2023/06/04 06:24:06;;;;;;;3.00;1.50;;;20.30;39.80;;;;;;4907108;29;20968;-85
2023/06/04 06:26:34;;;;;;;1.47;1.30;;;20.20;38.40;;;;;;4917753;29;20481;-85
2023/06/04 06:29:02;;;;;;;1.37;1.27;;;20.00;36.20;;;;;;4923158;29;20518;-86
2023/06/04 06:31:30;;;;;;;2.07;1.70;;;19.90;37.10;;;;;;4901480;29;20470;-84
2023/06/04 06:33:58;;;;;;;2.70;1.90;;;20.10;36.80;;;;;;4924268;29;20466;-85
2023/06/04 06:36:26;;;;;;;2.67;1.80;;;20.20;36.40;;;;;;4930296;29;20466;-84
2023/06/04 06:38:53;;;;;;;2.20;1.93;;;20.40;37.80;;;;;;4907788;29;20464;-84
2023/06/04 06:41:20;;;;;;;2.10;1.73;;;20.70;38.20;;;;;;4908273;29;20447;-86
2023/06/04 06:43:47;;;;;;;4.47;2.63;;;20.90;36.80;;;;;;4925546;29;20469;-86
2023/06/04 06:46:14;;;;;;;3.73;2.53;;;20.90;34.70;;;;;;4931911;28;20564;-84
2023/06/04 06:48:44;;;;;;;11.03;5.53;;;21.00;35.20;;;;;;4908069;29;20451;-84
2023/06/04 06:51:13;;;;;;;4.03;2.90;;;21.10;34.40;;;;;;4936342;29;20482;-85
2023/06/04 06:53:40;;;;;;;3.63;2.37;;;20.90;34.30;;;;;;4938992;29;20478;-85
2023/06/04 06:56:07;;;;;;;2.30;1.80;;;20.80;34.90;;;;;;4930385;28;20466;-84
2023/06/04 06:58:34;;;;;;;2.20;1.70;;;20.70;33.80;;;;;;4901794;29;20518;-84
2023/06/04 07:01:01;;;;;;;2.40;2.13;;;20.70;34.70;;;;;;4906054;29;20443;-86
2023/06/04 07:03:28;;;;;;;5.87;3.67;;;21.00;34.50;;;;;;4918113;29;20521;-83
2023/06/04 07:05:55;;;;;;;3.93;2.63;;;21.20;35.20;;;;;;4907657;29;20469;-84
2023/06/04 07:08:24;;;;;;;2.40;1.63;;;21.30;33.90;;;;;;4930802;29;20451;-84
2023/06/04 07:10:50;;;;;;;1.87;1.40;;;21.40;31.20;;;;;;4919359;29;20541;-83
2023/06/04 07:13:17;;;;;;;2.00;1.53;;;21.50;31.90;;;;;;4934486;29;20488;-84
2023/06/04 07:15:44;;;;;;;2.03;1.40;;;21.70;31.70;;;;;;4918605;29;20494;-84
2023/06/04 07:18:11;;;;;;;2.17;1.50;;;21.80;30.60;;;;;;4930429;29;20996;-84
2023/06/04 07:20:38;;;;;;;1.97;1.47;;;22.00;31.70;;;;;;4936298;29;21084;-83
2023/06/04 07:23:06;;;;;;;2.33;1.53;;;22.20;31.60;;;;;;4899733;28;21513;-83
2023/06/04 07:25:35;;;;;;;7.60;1.83;;;22.30;30.60;;;;;;4902107;29;20470;-84
2023/06/04 07:28:03;;;;;;;2.00;1.60;;;22.30;31.10;;;;;;4911341;29;20466;-83
2023/06/04 07:30:31;;;;;;;2.53;1.33;;;22.20;30.80;;;;;;4936754;29;21114;-83
2023/06/04 07:32:58;;;;;;;8.40;1.63;;;22.20;30.60;;;;;;4924994;29;20443;-83
2023/06/04 07:35:25;;;;;;;2.07;1.33;;;22.50;32.00;;;;;;4931856;28;20467;-84
2023/06/04 07:37:52;;;;;;;1.60;1.50;;;22.30;31.40;;;;;;4926021;28;20454;-82
2023/06/04 07:40:19;;;;;;;4.73;1.80;;;22.30;31.00;;;;;;4930074;29;20465;-83
2023/06/04 07:42:48;;;;;;;1.83;1.50;;;22.50;31.40;;;;;;4918863;29;20458;-83
2023/06/04 07:45:15;;;;;;;2.17;1.53;;;22.40;30.70;;;;;;4930290;28;20549;-82
2023/06/04 07:47:43;;;;;;;2.70;1.60;;;22.40;32.00;;;;;;4930013;29;20462;-83
2023/06/04 07:50:10;;;;;;;3.70;1.80;;;22.80;32.50;;;;;;4912339;29;20509;-83
2023/06/04 07:52:37;;;;;;;2.43;1.70;;;23.20;30.30;;;;;;4917573;29;20458;-83
2023/06/04 07:55:04;;;;;;;2.27;2.00;;;23.50;30.40;;;;;;4935435;29;20467;-84
2023/06/04 07:57:32;;;;;;;4.30;1.40;;;23.60;30.40;;;;;;4916768;29;20976;-83
2023/06/04 08:00:03;;;;;;;1.50;1.40;;;23.60;30.00;;;;;;4912176;29;20478;-83
2023/06/04 08:02:38;;;;;;;5.93;1.70;;;23.80;28.90;;;;;;4929477;29;20458;-84
2023/06/04 08:05:06;;;;;;;1.97;1.67;;;23.60;29.80;;;;;;4919518;29;21186;-84
2023/06/04 08:07:33;;;;;;;3.80;1.40;;;23.80;30.40;;;;;;4901604;29;20479;-85
2023/06/04 08:10:00;;;;;;;1.50;1.30;;;23.80;29.20;;;;;;4919799;29;21062;-85
2023/06/04 08:12:27;;;;;;;2.60;1.50;;;23.50;30.00;;;;;;4919862;29;20467;-84
2023/06/04 08:14:56;;;;;;;2.07;1.37;;;23.60;29.80;;;;;;4912942;29;20460;-84
2023/06/04 08:17:24;;;;;;;1.83;1.60;;;23.70;29.70;;;;;;4950556;28;20497;-84
2023/06/04 08:19:58;;;;;;;1.40;1.30;;;23.60;29.70;;;;;;4940830;29;20438;-86
2023/06/04 08:22:45;;;;;;;4.43;1.60;;;23.50;30.00;;;;;;4910040;29;20991;-83
2023/06/04 08:25:15;;;;;;;1.43;1.33;;;23.40;30.50;;;;;;4923980;28;20516;-84
2023/06/04 08:28:02;;;;;;;3.00;1.60;;;23.50;29.30;;;;;;4924807;29;20447;-85
2023/06/04 08:30:49;;;;;;;2.53;1.40;;;23.90;30.20;;;;;;4936589;29;21303;-84
2023/06/04 08:33:37;;;;;;;2.03;1.67;;;24.10;30.00;;;;;;4933431;29;21603;-84
2023/06/04 08:36:16;;;;;;;1.60;1.50;;;24.50;31.20;;;;;;4925597;29;20461;-84
2023/06/04 08:38:43;;;;;;;1.87;1.60;;;24.70;29.80;;;;;;4935632;29;20573;-84
2023/06/04 08:41:15;;;;;;;2.47;1.90;;;24.70;28.90;;;;;;4934007;29;20450;-85
2023/06/04 08:43:44;;;;;;;1.40;1.30;;;24.50;29.70;;;;;;4926326;29;20457;-83
2023/06/04 08:46:12;;;;;;;1.53;1.37;;;24.50;29.70;;;;;;4920726;29;20569;-84
2023/06/04 08:48:40;;;;;;;5.03;1.90;;;24.70;29.20;;;;;;4920676;29;20462;-84
2023/06/04 08:51:09;;;;;;;1.93;1.60;;;24.80;29.50;;;;;;4934564;28;20991;-84
2023/06/04 08:53:37;;;;;;;3.23;1.57;;;25.10;29.20;;;;;;4925375;29;20553;-84
2023/06/04 08:56:05;;;;;;;1.87;1.60;;;25.00;28.40;;;;;;4909503;29;20984;-85
2023/06/04 08:58:33;;;;;;;3.00;1.83;;;25.30;29.60;;;;;;4921321;29;20465;-83
2023/06/04 09:01:01;;;;;;;1.60;1.50;;;25.60;28.40;;;;;;4903556;29;20462;-86
2023/06/04 09:03:29;;;;;;;3.47;1.90;;;25.80;27.90;;;;;;4944626;29;20509;-85
2023/06/04 09:05:59;;;;;;;1.53;1.40;;;25.90;28.80;;;;;;4924184;29;20958;-85
2023/06/04 09:08:28;;;;;;;3.83;1.47;;;26.10;26.30;;;;;;4898685;29;20470;-83
2023/06/04 09:10:55;;;;;;;2.50;1.70;;;26.30;26.30;;;;;;4933477;29;21030;-85
2023/06/04 09:13:27;;;;;;;2.60;1.57;;;26.50;27.10;;;;;;4926519;29;20463;-83
2023/06/04 09:16:00;;;;;;;1.60;1.50;;;26.60;27.50;;;;;;4917735;29;20477;-84
2023/06/04 09:18:28;;;;;;;2.13;1.57;;;26.80;27.00;;;;;;4934840;29;20471;-84
2023/06/04 09:21:03;;;;;;;1.53;1.40;;;26.70;26.20;;;;;;4913261;29;20528;-84
2023/06/04 09:23:31;;;;;;;3.43;1.80;;;26.50;25.40;;;;;;4919175;29;20460;-84
2023/06/04 09:26:07;;;;;;;3.87;1.70;;;26.60;26.20;;;;;;4936970;28;20470;-85
2023/06/04 09:28:34;;;;;;;1.77;1.43;;;26.80;25.80;;;;;;4943211;28;20973;-84
2023/06/04 09:31:02;;;;;;;1.73;1.43;;;27.00;25.10;;;;;;4929977;28;20516;-85
2023/06/04 09:33:29;;;;;;;1.60;1.30;;;27.30;24.90;;;;;;4921580;29;21245;-85
2023/06/04 09:35:57;;;;;;;2.97;1.60;;;27.20;24.60;;;;;;4917814;29;20474;-85
2023/06/04 09:38:34;;;;;;;2.27;1.27;;;27.10;24.10;;;;;;4924030;29;20483;-83
2023/06/04 09:41:04;;;;;;;3.87;1.40;;;26.70;24.20;;;;;;4898761;29;20434;-84
2023/06/04 09:43:32;;;;;;;5.87;1.50;;;26.50;24.90;;;;;;4934728;29;20443;-84
2023/06/04 09:46:10;;;;;;;2.77;1.70;;;26.40;24.70;;;;;;4934667;29;20506;-83
2023/06/04 09:48:37;;;;;;;1.57;1.47;;;26.70;24.90;;;;;;4932435;29;20446;-85
2023/06/04 09:51:08;;;;;;;1.70;1.60;;;27.20;25.70;;;;;;4902435;29;20893;-84
2023/06/04 09:53:36;;;;;;;3.03;1.77;;;27.70;25.30;;;;;;4911164;29;20873;-85
2023/06/04 09:56:06;;;;;;;2.23;2.03;;;28.10;24.10;;;;;;4923405;29;20483;-84
2023/06/04 09:58:33;;;;;;;2.53;1.50;;;28.00;24.30;;;;;;4936041;29;20683;-85
2023/06/04 10:01:01;;;;;;;2.77;1.53;;;28.20;23.50;;;;;;4918800;29;20458;-85
2023/06/04 10:03:32;;;;;;;3.73;1.67;;;28.30;23.60;;;;;;4934307;29;20501;-84
2023/06/04 10:06:01;;;;;;;2.40;1.50;;;28.40;22.10;;;;;;4896288;29;21007;-85
2023/06/04 10:08:30;;;;;;;1.80;1.47;;;28.50;21.60;;;;;;4908421;29;20456;-84
2023/06/04 10:11:01;;;;;;;1.80;1.60;;;28.80;22.40;;;;;;4903670;29;21161;-84
2023/06/04 10:13:30;;;;;;;1.97;1.50;;;28.80;20.70;;;;;;4934880;29;20450;-84
2023/06/04 10:15:59;;;;;;;2.07;1.83;;;28.90;22.60;;;;;;4921913;29;20835;-85
2023/06/04 10:18:28;;;;;;;2.00;1.40;;;29.20;22.20;;;;;;4924938;29;20486;-87
2023/06/04 10:20:57;;;;;;;1.50;1.40;;;29.30;21.40;;;;;;4922634;29;20550;-85
2023/06/04 10:23:24;;;;;;;1.63;1.53;;;29.50;22.80;;;;;;4902553;29;20467;-84
2023/06/04 10:25:53;;;;;;;1.87;1.50;;;29.70;20.50;;;;;;4931876;29;20463;-85
2023/06/04 10:28:23;;;;;;;2.30;1.40;;;29.60;21.20;;;;;;4934765;29;21252;-85
2023/06/04 10:30:51;;;;;;;1.50;1.40;;;29.50;20.70;;;;;;4908363;29;20459;-85
2023/06/04 10:33:23;;;;;;;2.10;1.50;;;29.40;21.80;;;;;;4917751;29;20482;-84
2023/06/04 10:35:52;;;;;;;2.33;1.50;;;29.20;21.10;;;;;;4924804;29;20501;-85
2023/06/04 10:38:21;;;;;;;1.77;1.40;;;29.30;22.60;;;;;;4909737;29;20486;-84
2023/06/04 10:40:48;;;;;;;5.97;1.53;;;29.70;21.90;;;;;;4931629;29;20498;-85
2023/06/04 10:43:16;;;;;;;1.80;1.50;;;30.10;21.20;;;;;;4931204;29;20443;-85
2023/06/04 10:45:45;;;;;;;3.33;1.40;;;29.80;20.30;;;;;;4915177;29;20550;-85
2023/06/04 10:48:14;;;;;;;3.00;1.80;;;29.00;21.20;;;;;;4923244;29;20463;-84
2023/06/04 10:50:51;;;;;;;2.67;2.00;;;28.90;22.20;;;;;;4919082;29;20463;-85
2023/06/04 10:53:19;;;;;;;3.63;1.83;;;29.20;22.00;;;;;;4923481;29;20573;-84
2023/06/04 10:55:47;;;;;;;2.87;1.50;;;29.10;21.50;;;;;;4919797;29;20486;-86
2023/06/04 10:58:17;;;;;;;3.23;2.30;;;29.10;21.10;;;;;;4914651;29;20466;-85
2023/06/04 11:00:49;;;;;;;2.07;1.40;;;29.20;21.10;;;;;;4921880;29;20447;-85
2023/06/04 11:03:17;;;;;;;4.07;1.80;;;29.10;20.00;;;;;;4905690;29;21135;-84
2023/06/04 11:05:45;;;;;;;2.40;2.20;;;28.80;20.60;;;;;;4923275;29;21066;-84
2023/06/04 11:08:14;;;;;;;2.20;1.50;;;28.50;20.80;;;;;;4914542;29;21154;-85
2023/06/04 11:10:43;;;;;;;1.40;1.23;;;28.90;21.60;;;;;;4919044;29;21036;-85
2023/06/04 11:13:11;;;;;;;2.33;1.67;;;29.40;20.10;;;;;;4921234;29;21037;-85
2023/06/04 11:15:42;;;;;;;1.87;1.63;;;29.80;20.10;;;;;;4907046;29;20482;-85
2023/06/04 11:18:15;;;;;;;2.57;1.23;;;29.80;20.30;;;;;;4919642;29;20513;-85
2023/06/04 11:20:42;;;;;;;1.50;1.40;;;30.10;20.70;;;;;;4899399;29;20534;-85
2023/06/04 11:23:12;;;;;;;5.23;1.40;;;30.20;19.90;;;;;;4906495;29;20454;-84
2023/06/04 11:25:40;;;;;;;2.53;1.37;;;30.10;19.50;;;;;;4917152;29;20470;-85
2023/06/04 11:28:07;;;;;;;2.37;1.30;;;30.30;19.50;;;;;;4898442;29;20446;-85
2023/06/04 11:30:34;;;;;;;3.20;1.50;;;30.40;19.20;;;;;;4918152;29;20978;-85
2023/06/04 11:33:02;;;;;;;3.20;1.67;;;30.70;19.10;;;;;;4919294;29;20470;-85
2023/06/04 11:35:31;;;;;;;4.00;1.40;;;30.90;19.10;;;;;;4918838;29;20454;-86
2023/06/04 11:37:59;;;;;;;1.70;1.50;;;30.70;18.60;;;;;;4923489;29;20442;-85
2023/06/04 11:40:27;;;;;;;2.40;1.77;;;30.40;18.60;;;;;;4899515;29;20485;-86
2023/06/04 11:42:55;;;;;;;1.60;1.50;;;30.50;18.80;;;;;;4915988;29;20496;-86
2023/06/04 11:45:25;;;;;;;1.20;1.10;;;30.30;19.10;;;;;;4902543;29;20455;-85
2023/06/04 11:47:53;;;;;;;2.70;1.40;;;30.40;19.40;;;;;;4935548;28;20463;-86
2023/06/04 11:50:21;;;;;;;1.90;1.50;;;30.50;19.30;;;;;;4919695;29;20466;-84
2023/06/04 11:52:50;;;;;;;2.40;1.13;;;30.70;18.90;;;;;;4904578;29;20486;-85
2023/06/04 11:55:20;;;;;;;2.90;1.40;;;30.70;18.80;;;;;;4920204;29;21077;-85
2023/06/04 11:57:48;;;;;;;1.57;1.43;;;30.50;19.10;;;;;;4929549;29;20450;-85
2023/06/04 12:00:17;;;;;;;1.30;1.20;;;30.70;19.40;;;;;;4917265;29;20458;-85
2023/06/04 12:02:52;;;;;;;1.83;1.53;;;30.70;19.40;;;;;;4932807;29;20447;-84
2023/06/04 12:05:22;;;;;;;1.70;1.50;;;30.50;18.30;;;;;;4932681;28;21033;-85
2023/06/04 12:07:51;;;;;;;2.23;1.60;;;30.20;19.20;;;;;;4920797;29;20450;-85
2023/06/04 12:10:19;;;;;;;4.17;1.37;;;30.20;18.40;;;;;;4934662;29;20457;-84
2023/06/04 12:12:46;;;;;;;3.73;1.30;;;30.10;19.20;;;;;;4912714;29;21002;-85
2023/06/04 12:15:20;;;;;;;1.80;1.70;;;29.80;18.90;;;;;;4923745;29;20885;-86
2023/06/04 12:17:51;;;;;;;5.43;1.63;;;29.10;19.10;;;;;;4908174;29;20465;-84
2023/06/04 12:20:18;;;;;;;1.53;1.30;;;28.90;19.70;;;;;;4939063;29;20466;-84
2023/06/04 12:22:46;;;;;;;3.10;1.30;;;29.20;20.50;;;;;;4909795;29;20449;-85
2023/06/04 12:25:25;;;;;;;2.13;1.53;;;29.80;19.40;;;;;;4930711;28;21015;-85
2023/06/04 12:27:52;;;;;;;1.93;1.50;;;30.10;19.40;;;;;;4921018;29;20799;-85
2023/06/04 12:30:19;;;;;;;1.77;1.67;;;30.50;19.50;;;;;;4927008;29;20498;-85
2023/06/04 12:32:46;;;;;;;1.77;1.67;;;30.60;18.90;;;;;;4933899;28;21185;-85
2023/06/04 12:35:14;;;;;;;2.13;1.70;;;30.60;18.50;;;;;;4920350;29;20451;-84
2023/06/04 12:37:41;;;;;;;5.13;1.70;;;30.80;18.40;;;;;;4932808;29;20451;-85
2023/06/04 12:40:08;;;;;;;2.10;1.37;;;30.70;18.00;;;;;;4909033;29;20458;-86
2023/06/04 12:42:37;;;;;;;1.70;1.40;;;30.90;18.30;;;;;;4916716;29;20506;-85
2023/06/04 12:45:05;;;;;;;1.50;1.40;;;31.20;19.00;;;;;;4899871;29;20521;-85
2023/06/04 12:47:32;;;;;;;1.57;1.30;;;31.30;18.10;;;;;;4920111;29;21005;-85
2023/06/04 12:50:00;;;;;;;1.77;1.67;;;31.40;17.90;;;;;;4919334;29;20537;-85
2023/06/04 12:52:27;;;;;;;2.27;1.53;;;31.70;17.90;;;;;;4917583;29;20953;-84
2023/06/04 12:54:54;;;;;;;2.10;1.67;;;31.60;18.00;;;;;;4932441;29;20522;-84